Cdry Blue — ICOB — position and weather

sailwx.info

Track history (hours):
 
Tides and Currents Weather Stations Pressure Air Temp Water Temp Dewpoint Dewpoint Depression Visibility Wind Speed Wind Dir Waves Ship Positions

Cdry Blue

Last reported at 2016-Feb-10 09:32 UTC. Time now 2016-Feb-11 04:30 UTC.
Position N 38°24' E 012°49'.

Length 108 m; draft 7.2 m.

Type: Cargo ship. MMSI: 247289300.

Date/timePositionNaut miles runAvg speedWind from/ knotsBaromVisibWave heightAir tempDewpointWater temp
2016-Feb-10 09:32N 38°24' E 012°49'7 7.6
2016-Feb-10 08:33N 38°24' E 012°59'8 7.7
2016-Feb-10 07:34N 38°24' E 013°09'8 7.8
2016-Feb-10 06:33N 38°24' E 013°18'8 8.3
2016-Feb-10 05:34N 38°24' E 013°29'9 9.0
2016-Feb-10 04:33N 38°22' E 013°40'1010.1
2016-Feb-10 03:33N 38°22' E 013°53'12 9.9
2016-Feb-10 02:19N 38°22' E 014°09'2010.3
2016-Feb-10 00:21N 38°20' E 014°35'911.0
2016-Feb-09 23:33N 38°19' E 014°46'1111.3
2016-Feb-09 22:34N 38°19' E 015°00'1111.1
2016-Feb-09 21:33N 38°20' E 015°14'1111.0
2016-Feb-09 20:33N 38°22' E 015°28'1110.6
2016-Feb-09 19:33N 38°19' E 015°41'10 9.5
2016-Feb-09 18:33N 38°10' E 015°36'1111.1
2016-Feb-09 17:33N 37°59' E 015°35'  
Track history (hours):
 
Tides and Currents Weather Stations Pressure Air Temp Water Temp Dewpoint Dewpoint Depression Visibility Wind Speed Wind Dir Waves Ship Positions

Cdry Blue

Last reported at 2016-Feb-10 09:32 UTC. Time now 2016-Feb-11 04:30 UTC.
Position N 38°24' E 012°49'.

Length 108 m; draft 7.2 m.

Type: Cargo ship. MMSI: 247289300.

Date/timePositionNaut miles runAvg speedWind from/ knotsBaromVisibWave heightAir tempDewpointWater temp
2016-Feb-10 09:32N 38°24' E 012°49'7 7.6
2016-Feb-10 08:33N 38°24' E 012°59'8 7.7
2016-Feb-10 07:34N 38°24' E 013°09'8 7.8
2016-Feb-10 06:33N 38°24' E 013°18'8 8.3
2016-Feb-10 05:34N 38°24' E 013°29'9 9.0
2016-Feb-10 04:33N 38°22' E 013°40'1010.1
2016-Feb-10 03:33N 38°22' E 013°53'12 9.9
2016-Feb-10 02:19N 38°22' E 014°09'2010.3
2016-Feb-10 00:21N 38°20' E 014°35'911.0
2016-Feb-09 23:33N 38°19' E 014°46'1111.3
2016-Feb-09 22:34N 38°19' E 015°00'1111.1
2016-Feb-09 21:33N 38°20' E 015°14'1111.0
2016-Feb-09 20:33N 38°22' E 015°28'1110.6
2016-Feb-09 19:33N 38°19' E 015°41'10 9.5
2016-Feb-09 18:33N 38°10' E 015°36'1111.1
2016-Feb-09 17:33N 37°59' E 015°35'  

Dump ship's entire track history